• Join FlightAware (Why Join?)
  • Login
  • US Flag 
01:37AM EDT


 

Airport Tracker/Info


-or-


 

Live Flight TrackerFlight Track Log ✈ AJT744 ✈ 25-Oct-2013 ✈ MMMD / MID - KMIA

Flight Track Log - Related Links

Times and Time Zones

All times are in EDT time to prevent confusion due to time zone crossing. See the AJT744 flight status page for this flight to view local times or setup timezone preferences in your user account.

Time Position Orientation Groundspeed Altitude Reporting Facility
EDT Latitude Longitude Course Direction KTS MPH feet Rate Location/Type
09:42AM 23.2858 -83.6408 59° Northeast 482 555 39,000  Level Miami Center
09:43AM 23.3686 -83.5167 54° Northeast 499 574 39,000  Level Miami Center
09:44AM 23.4469 -83.3939 55° Northeast 499 574 39,000  Level Miami Center
09:45AM 23.5253 -83.2736 55° Northeast 494 568 39,000 -60 Level Miami Center
09:46AM 23.6056 -83.1508 54° Northeast 489 563 38,900  Descending Miami Center
09:47AM 24.1865 -83.5941 59° Northeast  Level Estimated
09:47AM 23.6817 -83.0256 56° Northeast 495 570 39,000  Level Miami Center
09:48AM 23.7661 -82.9003 54° Northeast 500 575 39,000  Level Miami Center
09:49AM 23.8422 -82.7700 57° Northeast 500 575 39,000  Level Miami Center
09:50AM 23.9244 -82.6444 54° Northeast 500 575 39,000  Level Miami Center
09:51AM 24.0025 -82.5164 56° Northeast 500 575 39,000  Level Miami Center
09:52AM 24.1114 -82.3961 45° Northeast 500 575 39,000  Level Miami Center
09:53AM 24.2131 -82.2936 43° Northeast 495 570 39,000 -120 Level Miami Center
09:54AM 24.3089 -82.1883 45° Northeast 489 563 38,800 -1,680 Descending Miami Center
09:55AM 24.4169 -82.0836 41° Northeast 489 563 35,700 -2,760 Descending Miami Center
09:56AM 24.5189 -81.9761 44° Northeast 494 568 33,300 -2,460 Descending Miami Center
09:57AM 24.6228 -81.8683 43° Northeast 499 574 30,800 -2,400 Descending Miami Center
09:58AM 24.7239 -81.7789 39° Northeast 509 586 28,600 -2,340 Descending Miami Center
09:59AM 24.8233 -81.6753 43° Northeast 499 574 26,200 -2,400 Descending Miami Center
10:00AM 24.9208 -81.5692 45° Northeast 469 540 23,800 -2,280 Descending Miami Center
10:01AM 25.0092 -81.4786 43° Northeast 450 518 21,700 -2,100 Descending Miami Center
10:02AM 25.0975 -81.3878 43° Northeast 433 498 19,600 -2,040 Descending Miami Center
10:03AM 25.1772 -81.3106 41° Northeast 423 487 17,700 -2,100 Descending Miami Center
10:04AM 25.2614 -81.2217 44° Northeast 404 465 15,500 -2,160 Descending Miami Center
10:05AM 25.3411 -81.1397 43° Northeast 389 448 13,400 -2,100 Descending Miami Center
10:06AM 25.4186 -81.0572 44° Northeast 389 448 11,300 -1,560 Descending Miami Center
10:07AM 25.4789 -80.9950 43° Northeast 327 376 10,500 -900 Descending Miami Center
10:07AM 25.4875 -80.9836 50° Northeast 363 418 10,400 -540 Descending Miami Center
10:08AM 25.5456 -80.9211 44° Northeast 322 371 9,900 -420 Descending Miami Center
10:08AM 25.5458 -80.9189 82° East 276 318 10,000 -540 Climbing Miami Center
10:09AM 25.5872 -80.8489 57° Northeast 293 337 9,400 -840 Descending Miami Center
10:09AM 25.5917 -80.8397 62° Northeast 279 321 9,200 -1,500 Descending Miami Center
10:10AM 25.6269 -80.7742 59° Northeast 279 321 7,900 -1,380 Descending Miami Center
10:10AM 25.6294 -80.7628 76° East 281 323 7,800 -1,020 Descending Miami Center
10:11AM 25.6600 -80.7083 58° Northeast 268 308 6,900 -1,200 Descending Miami Center
10:12AM 25.6667 -80.6925 65° Northeast 262 302 6,600 -1,800 Descending Miami Center
10:13AM 25.7019 -80.6244 60° Northeast 246 283 4,800 -1,560 Descending Miami Center
10:13AM 25.7281 -80.5769 59° Northeast 246 283 3,800 -1,380 Descending Miami Center
10:14AM 25.7328 -80.5608 72° East 234 269 3,400 -900 Descending Miami Center
10:14AM 25.7611 -80.5156 55° Northeast 240 276 2,900 -420 Descending Miami Center
10:15AM 25.7678 -80.4997 65° Northeast 228 262 3,000 -600 Climbing Miami Center
10:16AM 25.7775 -80.4422 79° East 188 216 2,200 -900 Descending Miami Center
10:16AM 25.7847 -80.4033 78° East 197 227 1,500 -900 Descending Miami Center
10:17AM 25.7808 -80.3869 105° East 137 158 1,200 -720 Descending Miami Center
10:18AM 25.7817 -80.3500 89° East 129 148 600 -660 Descending Miami Center
10:20AM 25.7833 -80.2833 90° East  Level FlightAware Approximate
10:27AM 25.7954 -80.2901 90° East  Level Estimated